Time;durP1;ratioP1;P1;durP2;ratioP2;P2;SDS_P1;SDS_P2;PMS_P1;PMS_P2;Temp;Humidity;BMP_temperature;BMP_pressure;BME280_temperature;BME280_humidity;BME280_pressure;Samples;Min_cycle;Max_cycle;Signal;HPM_P1;HPM_P2
2023/02/20 00:00:03;;;;;;;5.93;3.33;;;8.20;99.90;;;;;;2042443;28;20041;-74
2023/02/20 00:01:04;;;;;;;4.18;3.80;;;8.20;99.90;;;;;;2044432;28;20442;-74
2023/02/20 00:02:05;;;;;;;5.90;3.63;;;8.20;99.90;;;;;;2045576;28;20038;-74
2023/02/20 00:03:07;;;;;;;4.57;3.72;;;8.20;99.90;;;;;;2042929;28;20019;-73
2023/02/20 00:04:08;;;;;;;4.65;3.92;;;8.20;99.90;;;;;;2035850;29;20670;-74
2023/02/20 00:05:11;;;;;;;5.18;3.90;;;8.20;99.90;;;;;;2035148;29;20036;-74
2023/02/20 00:06:12;;;;;;;5.20;4.15;;;8.20;99.90;;;;;;2042967;28;20049;-74
2023/02/20 00:07:13;;;;;;;5.22;4.10;;;8.20;99.90;;;;;;2043863;29;20042;-74
2023/02/20 00:08:13;;;;;;;5.97;4.47;;;8.20;99.90;;;;;;2042642;29;20083;-74
2023/02/20 00:09:14;;;;;;;6.22;4.85;;;8.20;99.90;;;;;;2043439;28;20510;-74
2023/02/20 00:10:15;;;;;;;6.00;4.80;;;8.20;99.90;;;;;;2043271;29;20486;-74
2023/02/20 00:11:16;;;;;;;5.78;4.60;;;8.20;99.90;;;;;;2044922;28;20031;-74
2023/02/20 00:12:16;;;;;;;5.75;5.00;;;8.20;99.90;;;;;;2043526;28;20027;-74
2023/02/20 00:13:17;;;;;;;6.85;4.78;;;8.20;99.90;;;;;;2044977;28;20106;-74
2023/02/20 00:14:17;;;;;;;7.65;5.72;;;8.20;99.90;;;;;;2043637;29;20031;-74
2023/02/20 00:15:19;;;;;;;7.88;6.18;;;8.20;99.90;;;;;;2043506;28;20636;-74
2023/02/20 00:16:20;;;;;;;8.13;5.93;;;8.20;99.90;;;;;;2042641;28;20510;-74
2023/02/20 00:17:21;;;;;;;7.70;5.95;;;8.20;99.90;;;;;;2042023;29;20432;-74
2023/02/20 00:18:21;;;;;;;8.88;6.82;;;8.20;99.90;;;;;;2044392;29;20043;-74
2023/02/20 00:19:22;;;;;;;11.25;7.63;;;8.20;99.90;;;;;;2043852;28;20051;-74
2023/02/20 00:20:25;;;;;;;10.43;6.93;;;8.20;99.90;;;;;;2044091;28;20560;-74
2023/02/20 00:21:25;;;;;;;8.45;7.18;;;8.20;99.90;;;;;;2043562;28;20408;-74
2023/02/20 00:22:26;;;;;;;9.85;7.20;;;8.20;99.90;;;;;;2033418;29;20067;-74
2023/02/20 00:23:27;;;;;;;13.57;8.30;;;8.20;99.90;;;;;;2036487;29;20024;-74
2023/02/20 00:24:27;;;;;;;9.95;8.18;;;8.20;99.90;;;;;;2044094;28;20062;-74
2023/02/20 00:25:28;;;;;;;12.63;8.32;;;8.20;99.90;;;;;;2044127;29;20078;-74
2023/02/20 00:26:28;;;;;;;11.65;8.95;;;8.20;99.90;;;;;;2044227;28;20043;-74
2023/02/20 00:27:29;;;;;;;9.60;8.50;;;8.20;99.90;;;;;;2043642;28;20599;-73
2023/02/20 00:28:29;;;;;;;12.75;9.40;;;8.20;99.90;;;;;;2044658;29;20023;-74
2023/02/20 00:29:30;;;;;;;14.10;9.68;;;8.10;99.90;;;;;;2043744;28;20027;-74
2023/02/20 00:30:30;;;;;;;11.32;9.20;;;8.10;99.90;;;;;;2044177;28;20038;-74
2023/02/20 00:31:31;;;;;;;14.82;9.98;;;8.10;99.90;;;;;;2044920;28;20055;-74
2023/02/20 00:32:31;;;;;;;11.93;9.82;;;8.10;99.90;;;;;;2044060;28;20031;-74
2023/02/20 00:33:32;;;;;;;15.13;9.50;;;8.10;99.90;;;;;;2044066;28;20028;-74
2023/02/20 00:34:33;;;;;;;13.07;9.07;;;8.10;99.90;;;;;;2045536;29;20034;-73
2023/02/20 00:35:33;;;;;;;13.35;9.75;;;8.10;99.90;;;;;;2043521;29;20114;-74
2023/02/20 00:36:34;;;;;;;15.13;10.68;;;8.10;99.90;;;;;;2044332;28;20034;-74
2023/02/20 00:37:34;;;;;;;16.15;11.10;;;8.10;99.90;;;;;;2043843;28;20745;-74
2023/02/20 00:38:35;;;;;;;14.45;10.23;;;8.10;99.90;;;;;;2044031;29;20027;-74
2023/02/20 00:39:35;;;;;;;16.70;10.13;;;8.10;99.90;;;;;;2045000;28;20146;-74
2023/02/20 00:40:36;;;;;;;12.30;10.23;;;8.10;99.90;;;;;;2043036;28;20086;-74
2023/02/20 00:41:36;;;;;;;18.30;10.65;;;8.10;99.90;;;;;;2042101;28;20027;-74
2023/02/20 00:42:37;;;;;;;13.65;11.32;;;8.10;99.90;;;;;;2043610;28;20476;-74
2023/02/20 00:43:37;;;;;;;14.18;11.00;;;8.10;99.90;;;;;;2035031;29;20032;-74
2023/02/20 00:44:38;;;;;;;15.13;11.00;;;8.10;99.90;;;;;;2036530;29;20024;-74
2023/02/20 00:45:38;;;;;;;15.00;12.05;;;8.10;99.90;;;;;;2041332;28;20028;-73
2023/02/20 00:46:39;;;;;;;15.68;11.15;;;8.10;99.90;;;;;;2042861;29;20058;-74
2023/02/20 00:47:40;;;;;;;14.18;11.20;;;8.10;99.90;;;;;;2044646;28;20031;-74
2023/02/20 00:48:40;;;;;;;18.17;11.60;;;8.10;99.90;;;;;;2036381;29;20380;-74
2023/02/20 00:49:41;;;;;;;15.68;11.73;;;8.10;99.90;;;;;;2034237;29;20028;-74
2023/02/20 00:50:41;;;;;;;16.52;11.68;;;8.10;99.90;;;;;;2043632;28;20106;-74
2023/02/20 00:51:42;;;;;;;16.45;11.40;;;8.10;99.90;;;;;;2043323;28;20035;-74
2023/02/20 00:52:42;;;;;;;16.35;12.18;;;8.10;99.90;;;;;;2035349;29;20537;-74
2023/02/20 00:53:43;;;;;;;16.75;12.98;;;8.10;99.90;;;;;;2034929;29;20032;-74
2023/02/20 00:54:43;;;;;;;15.02;12.10;;;8.10;99.90;;;;;;2042705;28;20038;-74
2023/02/20 00:55:44;;;;;;;16.73;11.77;;;8.10;99.90;;;;;;2034164;29;20066;-74
2023/02/20 00:56:45;;;;;;;16.13;12.38;;;8.10;99.90;;;;;;2035121;29;20035;-74
2023/02/20 00:57:45;;;;;;;15.57;13.23;;;8.10;99.90;;;;;;2037317;29;20036;-74
2023/02/20 00:58:46;;;;;;;17.40;13.00;;;8.10;99.90;;;;;;2038089;29;20036;-74
2023/02/20 00:59:46;;;;;;;18.67;12.93;;;8.10;99.90;;;;;;2042204;28;20040;-74
2023/02/20 01:00:47;;;;;;;16.55;13.10;;;8.10;99.90;;;;;;2043556;28;20024;-74
2023/02/20 01:01:47;;;;;;;17.15;12.63;;;8.10;99.90;;;;;;2042712;28;20035;-74
2023/02/20 01:02:48;;;;;;;19.20;13.45;;;8.10;99.90;;;;;;2044169;29;20041;-74
2023/02/20 01:03:49;;;;;;;16.98;12.85;;;8.10;99.90;;;;;;2044234;28;20033;-74
2023/02/20 01:04:49;;;;;;;18.33;12.25;;;8.10;99.90;;;;;;2042616;28;20835;-74
2023/02/20 01:05:50;;;;;;;17.60;12.60;;;8.10;99.90;;;;;;2042572;28;20035;-74
2023/02/20 01:06:50;;;;;;;16.58;12.98;;;8.10;99.90;;;;;;2044841;29;20127;-74
2023/02/20 01:07:52;;;;;;;17.33;13.18;;;8.10;99.90;;;;;;2042963;28;20831;-74
2023/02/20 01:08:52;;;;;;;14.80;12.40;;;8.10;99.90;;;;;;2042648;28;20795;-74
2023/02/20 01:09:53;;;;;;;19.05;13.60;;;8.20;99.90;;;;;;2043134;28;20450;-74
2023/02/20 01:10:53;;;;;;;17.80;12.68;;;8.10;99.90;;;;;;2044050;29;20031;-74
2023/02/20 01:11:54;;;;;;;19.67;13.45;;;8.10;99.90;;;;;;2035374;29;20032;-74
2023/02/20 01:12:55;;;;;;;16.30;13.43;;;8.10;99.90;;;;;;2035121;29;20038;-74
2023/02/20 01:13:55;;;;;;;19.52;13.15;;;8.10;99.90;;;;;;2042410;28;20055;-74
2023/02/20 01:14:56;;;;;;;17.55;13.27;;;8.10;99.90;;;;;;2045167;28;20036;-74
2023/02/20 01:15:56;;;;;;;18.10;12.80;;;8.10;99.90;;;;;;2043968;28;20019;-74
2023/02/20 01:16:57;;;;;;;18.50;13.18;;;8.10;99.90;;;;;;2044055;28;20042;-74
2023/02/20 01:17:57;;;;;;;16.40;13.00;;;8.10;99.90;;;;;;2044299;28;20035;-73
2023/02/20 01:18:58;;;;;;;16.52;13.80;;;8.20;99.90;;;;;;2043225;28;21214;-74
2023/02/20 01:19:59;;;;;;;18.38;13.90;;;8.20;99.90;;;;;;2044074;28;20126;-74
2023/02/20 01:20:59;;;;;;;18.35;13.80;;;8.20;99.90;;;;;;2046652;29;20550;-74
2023/02/20 01:22:01;;;;;;;17.42;13.82;;;8.20;99.90;;;;;;2045475;28;20435;-73
2023/02/20 01:23:02;;;;;;;19.23;14.38;;;8.20;99.90;;;;;;2044665;29;20031;-74
2023/02/20 01:24:02;;;;;;;18.88;14.65;;;8.20;99.90;;;;;;2044229;28;20028;-74
2023/02/20 01:25:04;;;;;;;20.15;14.38;;;8.20;99.90;;;;;;2037720;29;20028;-74
2023/02/20 01:26:04;;;;;;;17.60;13.77;;;8.20;99.90;;;;;;2037961;29;20666;-74
2023/02/20 01:27:05;;;;;;;15.57;13.35;;;8.20;99.90;;;;;;2045508;28;20376;-74
2023/02/20 01:28:05;;;;;;;19.05;14.73;;;8.20;99.90;;;;;;2046089;28;20027;-74
2023/02/20 01:29:06;;;;;;;18.75;13.95;;;8.20;99.90;;;;;;2045955;28;20114;-74
2023/02/20 01:30:08;;;;;;;19.17;14.18;;;8.20;99.90;;;;;;2044978;28;20038;-74
2023/02/20 01:31:08;;;;;;;21.40;14.98;;;8.20;99.90;;;;;;2043863;28;20123;-74
2023/02/20 01:32:12;;;;;;;21.80;15.85;;;8.20;99.90;;;;;;2038451;29;20024;-74
2023/02/20 01:33:12;;;;;;;20.88;15.98;;;8.20;99.90;;;;;;2038895;29;20423;-74
2023/02/20 01:34:13;;;;;;;22.30;18.75;;;8.20;99.90;;;;;;2046322;28;20035;-74
2023/02/20 01:35:15;;;;;;;22.52;18.90;;;8.20;99.90;;;;;;2036683;29;20160;-74
2023/02/20 01:36:15;;;;;;;25.10;18.88;;;8.20;99.90;;;;;;2030231;29;20028;-74
2023/02/20 01:37:18;;;;;;;21.75;19.08;;;8.20;99.90;;;;;;2037553;29;20068;-74
2023/02/20 01:38:19;;;;;;;22.02;17.25;;;8.20;99.90;;;;;;2035237;29;20036;-74
2023/02/20 01:39:25;;;;;;;24.95;15.88;;;8.20;99.90;;;;;;2036918;29;20028;-74
2023/02/20 01:40:26;;;;;;;19.33;15.45;;;8.20;99.90;;;;;;2042677;28;20027;-74
2023/02/20 01:41:27;;;;;;;18.92;15.32;;;8.20;99.90;;;;;;2045363;28;20024;-74
2023/02/20 01:42:32;;;;;;;15.52;13.75;;;8.20;99.90;;;;;;2046351;29;20035;-74
2023/02/20 01:43:32;;;;;;;18.17;13.60;;;8.20;99.90;;;;;;2046455;28;20019;-74
2023/02/20 01:44:35;;;;;;;17.00;12.93;;;8.20;99.90;;;;;;2044860;28;20024;-74
2023/02/20 01:45:37;;;;;;;19.98;13.30;;;8.20;99.90;;;;;;2045387;28;20016;-74
2023/02/20 01:46:38;;;;;;;17.58;13.00;;;8.20;99.90;;;;;;2046576;28;20019;-74
2023/02/20 01:47:39;;;;;;;15.82;12.88;;;8.20;99.90;;;;;;2036813;29;20103;-74
2023/02/20 01:48:39;;;;;;;19.23;11.57;;;8.20;99.90;;;;;;2036372;29;20023;-74
2023/02/20 01:49:53;;;;;;;14.65;12.00;;;8.20;99.90;;;;;;2043648;28;20030;-74
2023/02/20 01:50:57;;;;;;;15.82;11.95;;;8.20;99.90;;;;;;2045565;28;20435;-74
2023/02/20 01:52:22;;;;;;;14.73;11.48;;;8.20;99.90;;;;;;2038400;29;20036;-74
2023/02/20 01:53:25;;;;;;;20.55;11.68;;;8.20;99.90;;;;;;2030598;29;20035;-74
2023/02/20 01:54:26;;;;;;;14.43;10.88;;;8.20;99.90;;;;;;2045083;28;20027;-74
2023/02/20 01:55:34;;;;;;;13.80;10.15;;;8.20;99.90;;;;;;2045273;28;20059;-74
2023/02/20 01:56:35;;;;;;;13.93;11.65;;;8.20;99.90;;;;;;2044783;28;20094;-74
2023/02/20 01:57:40;;;;;;;12.50;10.40;;;8.20;99.90;;;;;;2045263;28;20023;-74
2023/02/20 01:58:45;;;;;;;12.85;10.68;;;8.20;99.90;;;;;;2044249;28;20046;-74
2023/02/20 01:59:48;;;;;;;14.63;10.60;;;8.20;99.90;;;;;;2045096;28;20028;-74
2023/02/20 02:00:49;;;;;;;14.82;11.15;;;8.20;99.90;;;;;;2046426;29;20040;-74
2023/02/20 02:01:49;;;;;;;15.80;11.02;;;8.20;99.90;;;;;;2045896;28;20115;-74
2023/02/20 02:03:04;;;;;;;16.00;10.90;;;8.20;99.90;;;;;;2044525;28;20023;-74
2023/02/20 02:04:08;;;;;;;12.88;11.00;;;8.20;99.90;;;;;;2046064;28;20023;-74
2023/02/20 02:05:10;;;;;;;12.77;10.40;;;8.20;99.90;;;;;;2043749;28;20867;-74
2023/02/20 02:06:13;;;;;;;14.30;11.32;;;8.20;99.90;;;;;;2045221;28;20019;-74
2023/02/20 02:07:14;;;;;;;15.05;10.75;;;8.20;99.90;;;;;;2045161;28;20044;-74
2023/02/20 02:08:18;;;;;;;14.23;11.18;;;8.20;99.90;;;;;;2044462;28;20035;-74
2023/02/20 02:09:30;;;;;;;14.88;11.70;;;8.20;99.90;;;;;;2043096;28;20023;-74
2023/02/20 02:10:55;;;;;;;13.35;11.40;;;8.20;99.90;;;;;;2046394;29;20038;-74
2023/02/20 02:11:56;;;;;;;13.40;11.00;;;8.20;99.90;;;;;;2046018;29;20027;-74
2023/02/20 02:12:57;;;;;;;16.08;11.45;;;8.20;99.90;;;;;;2044870;29;20035;-74
2023/02/20 02:13:57;;;;;;;13.73;11.30;;;8.20;99.90;;;;;;2036349;29;20146;-74
2023/02/20 02:14:58;;;;;;;15.27;10.48;;;8.20;99.90;;;;;;2036973;29;20131;-74
2023/02/20 02:16:28;;;;;;;13.73;11.57;;;8.20;99.90;;;;;;2045867;28;20023;-73
2023/02/20 02:17:43;;;;;;;16.10;11.13;;;8.20;99.90;;;;;;2034346;28;20130;-74
2023/02/20 02:19:08;;;;;;;14.38;10.45;;;8.20;99.90;;;;;;2044637;28;20039;-74
2023/02/20 02:20:38;;;;;;;15.45;10.77;;;8.20;99.90;;;;;;2045397;28;20055;-74
2023/02/20 02:21:59;;;;;;;14.18;11.35;;;8.20;99.90;;;;;;2032611;29;20032;-74
2023/02/20 02:23:21;;;;;;;15.73;11.27;;;8.10;99.90;;;;;;2040384;29;20042;-74
2023/02/20 02:24:49;;;;;;;14.02;11.38;;;8.20;99.90;;;;;;2043701;28;20562;-74
2023/02/20 02:25:58;;;;;;;17.70;11.25;;;8.10;99.90;;;;;;2044939;28;20024;-74
2023/02/20 02:27:40;;;;;;;14.93;11.73;;;8.10;99.90;;;;;;2045056;28;20470;-74
2023/02/20 02:29:11;;;;;;;14.70;11.00;;;8.10;99.90;;;;;;2043234;28;20290;-74
2023/02/20 02:30:47;;;;;;;14.93;12.57;;;8.10;99.90;;;;;;2043625;28;20388;-74
2023/02/20 02:31:55;;;;;;;13.90;11.98;;;8.10;99.90;;;;;;2044801;28;20074;-74
2023/02/20 02:33:17;;;;;;;16.90;12.43;;;8.10;99.90;;;;;;2045259;28;20389;-74
2023/02/20 02:35:01;;;;;;;14.60;12.18;;;8.10;99.90;;;;;;2044967;28;20110;-74
2023/02/20 02:36:13;;;;;;;15.60;12.32;;;8.10;99.90;;;;;;2045308;28;20034;-74
2023/02/20 02:37:25;;;;;;;17.38;12.60;;;8.10;99.90;;;;;;2043142;28;20036;-74
2023/02/20 02:38:46;;;;;;;15.68;12.55;;;8.10;99.90;;;;;;2044690;28;20034;-74
2023/02/20 02:40:00;;;;;;;;;;;8.10;99.90;;;;;;2045777;28;20031;-74
2023/02/20 02:41:13;;;;;;;15.00;12.43;;;8.10;99.90;;;;;;2045778;28;19969;-74
2023/02/20 02:42:32;;;;;;;19.70;13.43;;;8.10;99.90;;;;;;2045629;28;20043;-74
2023/02/20 02:43:46;;;;;;;17.20;12.88;;;8.10;99.90;;;;;;2041650;28;20023;-74
2023/02/20 02:44:53;;;;;;;16.67;13.02;;;8.10;99.90;;;;;;2045077;28;20035;-74
2023/02/20 02:45:59;;;;;;;17.90;13.93;;;8.10;99.90;;;;;;2045330;28;20039;-74
2023/02/20 02:47:15;;;;;;;16.50;13.25;;;8.10;99.90;;;;;;2044524;28;20110;-74
2023/02/20 02:48:23;;;;;;;20.15;13.45;;;8.10;99.90;;;;;;2045340;28;20130;-74
2023/02/20 02:49:26;;;;;;;19.35;13.70;;;8.10;99.90;;;;;;2044393;28;20031;-74
2023/02/20 02:50:33;;;;;;;18.27;14.73;;;8.10;99.90;;;;;;2044663;28;20699;-74
2023/02/20 02:51:38;;;;;;;17.90;14.20;;;8.10;99.90;;;;;;2044348;28;20376;-74
2023/02/20 02:52:49;;;;;;;19.80;14.93;;;8.10;99.90;;;;;;2046282;28;20020;-74
2023/02/20 02:54:04;;;;;;;21.95;14.77;;;8.10;99.90;;;;;;2037125;29;20028;-73
2023/02/20 02:55:08;;;;;;;18.15;14.80;;;8.10;99.90;;;;;;2037812;29;20035;-74
2023/02/20 02:56:22;;;;;;;19.88;14.32;;;8.10;99.90;;;;;;2043105;28;20717;-74
2023/02/20 02:57:27;;;;;;;23.77;15.07;;;8.10;99.90;;;;;;2044031;28;20039;-74
2023/02/20 02:58:27;;;;;;;17.58;13.85;;;8.10;99.90;;;;;;2042666;28;20062;-74
2023/02/20 02:59:31;;;;;;;18.35;14.23;;;8.10;99.90;;;;;;2044229;28;20039;-74
2023/02/20 03:00:35;;;;;;;22.80;14.68;;;8.10;99.90;;;;;;2045461;28;20499;-74
2023/02/20 03:01:41;;;;;;;18.15;14.50;;;8.10;99.90;;;;;;2044685;28;20019;-74
2023/02/20 03:03:02;;;;;;;21.13;13.68;;;8.10;99.90;;;;;;2045844;28;20399;-74
2023/02/20 03:04:06;;;;;;;18.27;13.88;;;8.10;99.90;;;;;;2043413;28;20024;-74
2023/02/20 03:05:11;;;;;;;21.80;15.02;;;8.10;99.90;;;;;;2045159;28;20030;-74
2023/02/20 03:06:21;;;;;;;17.67;13.35;;;8.10;99.90;;;;;;2045022;28;20031;-74
2023/02/20 03:07:23;;;;;;;24.27;15.98;;;8.10;99.90;;;;;;2045516;28;20401;-74
2023/02/20 03:08:37;;;;;;;18.50;14.55;;;8.00;99.90;;;;;;2044533;28;20039;-74
2023/02/20 03:09:59;;;;;;;21.95;14.43;;;8.00;99.90;;;;;;2043570;28;20035;-74
2023/02/20 03:11:19;;;;;;;19.05;13.77;;;8.10;99.90;;;;;;2043876;28;20040;-74
2023/02/20 03:12:21;;;;;;;18.15;14.73;;;8.00;99.90;;;;;;2046112;28;20028;-74
2023/02/20 03:16:21;;;;;;;17.48;13.88;;;8.00;99.90;;;;;;2045888;29;20483;-74
2023/02/20 03:17:28;;;;;;;18.38;14.15;;;8.00;99.90;;;;;;2044447;28;20455;-74
2023/02/20 03:18:35;;;;;;;18.30;13.73;;;8.00;99.90;;;;;;2045430;28;20094;-74
2023/02/20 03:19:51;;;;;;;18.98;13.88;;;8.00;99.90;;;;;;2043791;29;20134;-74
2023/02/20 03:20:57;;;;;;;25.27;14.93;;;8.00;99.90;;;;;;2044099;28;20031;-74
2023/02/20 03:22:01;;;;;;;18.92;13.82;;;8.00;99.90;;;;;;2045584;28;20442;-73
2023/02/20 03:23:04;;;;;;;19.35;12.88;;;8.00;99.90;;;;;;2045636;28;20142;-74
2023/02/20 03:24:08;;;;;;;21.52;13.82;;;8.00;99.90;;;;;;2045285;28;20055;-74
2023/02/20 03:25:20;;;;;;;18.73;12.80;;;8.00;99.90;;;;;;2044409;28;20031;-73
2023/02/20 03:26:27;;;;;;;21.33;13.35;;;8.00;99.90;;;;;;2044748;28;20031;-74
2023/02/20 03:27:50;;;;;;;19.02;13.80;;;8.00;99.90;;;;;;2045806;28;20204;-74
2023/02/20 03:29:04;;;;;;;18.98;13.20;;;8.00;99.90;;;;;;2044237;28;20393;-74
2023/02/20 03:30:25;;;;;;;18.92;13.20;;;8.00;99.90;;;;;;2043009;28;20075;-74
2023/02/20 03:31:34;;;;;;;18.73;12.95;;;8.00;99.90;;;;;;2034997;28;20119;-74
2023/02/20 03:44:09;;;;;;;19.48;13.43;;;8.00;99.90;;;;;;2045582;28;20531;-74
2023/02/20 03:45:11;;;;;;;19.70;13.07;;;7.90;99.90;;;;;;2045401;28;20038;-74
2023/02/20 03:46:19;;;;;;;19.45;13.50;;;7.90;99.90;;;;;;2043789;29;20054;-74
2023/02/20 03:47:22;;;;;;;20.80;13.40;;;8.00;99.90;;;;;;2044631;28;20027;-74
2023/02/20 03:48:33;;;;;;;17.35;13.20;;;8.00;99.90;;;;;;2043647;28;20046;-74
2023/02/20 03:49:41;;;;;;;18.80;13.82;;;8.00;99.90;;;;;;2044024;28;20058;-74
2023/02/20 03:52:03;;;;;;;18.10;13.00;;;7.90;99.90;;;;;;2043988;28;20114;-74
2023/02/20 03:53:03;;;;;;;18.52;12.35;;;7.90;99.90;;;;;;2036046;29;20168;-74
2023/02/20 03:54:04;;;;;;;17.65;12.52;;;7.90;99.90;;;;;;2035689;29;20121;-73
2023/02/20 03:55:08;;;;;;;16.35;11.77;;;8.00;99.90;;;;;;2042308;28;20035;-74
2023/02/20 03:56:13;;;;;;;19.98;14.05;;;8.00;99.90;;;;;;2045229;28;20023;-74
2023/02/20 03:57:37;;;;;;;20.90;13.52;;;8.00;99.90;;;;;;2044628;28;20442;-74
2023/02/20 03:58:42;;;;;;;17.33;12.25;;;7.90;99.90;;;;;;2043400;28;20030;-74
2023/02/20 03:59:51;;;;;;;21.05;13.30;;;7.90;99.90;;;;;;2043610;28;20031;-74
2023/02/20 04:00:56;;;;;;;18.60;13.23;;;7.90;99.90;;;;;;2045018;28;20082;-74
2023/02/20 04:02:00;;;;;;;19.98;12.75;;;7.90;99.90;;;;;;2043469;28;20027;-74
2023/02/20 04:03:10;;;;;;;20.33;12.95;;;7.90;99.90;;;;;;2043991;28;20035;-74
2023/02/20 04:04:15;;;;;;;19.60;12.45;;;7.90;99.90;;;;;;2043596;28;20027;-74
2023/02/20 04:05:26;;;;;;;16.27;11.38;;;7.90;99.90;;;;;;2044051;28;20073;-74
2023/02/20 04:06:30;;;;;;;19.83;13.05;;;7.90;99.90;;;;;;2045203;28;20055;-73
2023/02/20 04:07:44;;;;;;;19.52;13.57;;;7.90;99.90;;;;;;2043036;28;20042;-74
2023/02/20 04:08:59;;;;;;;18.95;12.80;;;8.00;99.90;;;;;;2045189;28;20031;-74
2023/02/20 04:10:03;;;;;;;20.10;12.73;;;7.90;99.90;;;;;;2043459;28;20114;-74
2023/02/20 04:11:14;;;;;;;19.70;12.50;;;7.90;99.90;;;;;;2043814;28;20040;-74
2023/02/20 04:12:23;;;;;;;18.08;12.32;;;7.90;99.90;;;;;;2043573;28;20391;-74
2023/02/20 04:13:24;;;;;;;18.50;12.63;;;7.90;99.90;;;;;;2044294;28;20145;-74
2023/02/20 04:14:27;;;;;;;19.92;12.32;;;7.90;99.90;;;;;;2046053;28;20034;-74
2023/02/20 04:15:29;;;;;;;17.02;12.85;;;7.90;99.90;;;;;;2043227;29;20068;-74
2023/02/20 04:16:36;;;;;;;18.38;12.13;;;7.90;99.90;;;;;;2044475;29;20471;-74
2023/02/20 04:17:42;;;;;;;19.45;11.75;;;7.90;99.90;;;;;;2044681;28;20023;-74
2023/02/20 04:18:43;;;;;;;17.35;11.98;;;7.90;99.90;;;;;;2043587;28;20058;-74
2023/02/20 04:19:44;;;;;;;17.35;11.70;;;7.90;99.90;;;;;;2043794;28;20039;-74
2023/02/20 04:20:52;;;;;;;17.95;12.48;;;7.90;99.90;;;;;;2045760;28;20487;-74
2023/02/20 04:22:00;;;;;;;18.38;11.93;;;7.90;99.90;;;;;;2043954;28;20526;-74
2023/02/20 04:23:12;;;;;;;18.17;11.63;;;7.90;99.90;;;;;;2043675;28;20031;-74
2023/02/20 04:24:33;;;;;;;19.30;11.57;;;7.90;99.90;;;;;;2044140;29;20110;-74
2023/02/20 04:25:48;;;;;;;18.45;11.98;;;7.90;99.90;;;;;;2034866;29;20027;-74
2023/02/20 04:26:49;;;;;;;19.48;12.32;;;7.90;99.90;;;;;;2038175;29;20028;-74
2023/02/20 04:27:50;;;;;;;18.70;12.90;;;7.90;99.90;;;;;;2043763;28;20026;-74
2023/02/20 04:28:52;;;;;;;19.58;11.63;;;7.90;99.90;;;;;;2045180;28;20054;-74
2023/02/20 04:29:52;;;;;;;16.95;11.68;;;7.90;99.90;;;;;;2041999;28;20468;-74
2023/02/20 04:30:53;;;;;;;16.65;12.68;;;7.90;99.90;;;;;;2037186;29;20100;-74
2023/02/20 04:31:54;;;;;;;19.85;11.75;;;7.90;99.90;;;;;;2038539;29;20038;-74
2023/02/20 04:32:54;;;;;;;15.93;11.63;;;7.90;99.90;;;;;;2035265;29;20027;-74
2023/02/20 04:33:55;;;;;;;19.63;12.15;;;7.90;99.90;;;;;;2034383;29;20032;-74
2023/02/20 04:34:56;;;;;;;19.45;11.77;;;7.90;99.90;;;;;;2036214;29;20075;-74
2023/02/20 04:35:57;;;;;;;15.82;11.23;;;7.90;99.90;;;;;;2036654;29;20051;-73
2023/02/20 04:37:16;;;;;;;16.27;11.93;;;7.90;99.90;;;;;;2044574;28;20078;-74
2023/02/20 04:38:16;;;;;;;18.92;11.20;;;7.90;99.90;;;;;;2035634;29;20531;-74
2023/02/20 04:39:17;;;;;;;17.48;11.88;;;7.90;99.90;;;;;;2035846;29;20559;-74
2023/02/20 04:40:21;;;;;;;17.25;11.65;;;7.90;99.90;;;;;;2044249;28;20046;-74
2023/02/20 04:41:21;;;;;;;16.63;11.55;;;7.90;99.90;;;;;;2045523;28;20031;-74
2023/02/20 04:42:22;;;;;;;17.75;11.27;;;7.90;99.90;;;;;;2044535;29;20467;-74
2023/02/20 04:43:22;;;;;;;16.50;10.88;;;7.90;99.90;;;;;;2044861;28;20632;-74
2023/02/20 04:44:35;;;;;;;19.48;11.30;;;7.90;99.90;;;;;;2044085;28;20078;-74
2023/02/20 04:45:36;;;;;;;16.70;10.60;;;7.90;99.90;;;;;;2043590;28;20490;-74
2023/02/20 04:46:36;;;;;;;18.08;11.38;;;7.90;99.90;;;;;;2044016;29;20049;-73
2023/02/20 04:47:37;;;;;;;16.95;10.75;;;7.90;99.90;;;;;;2043355;29;20106;-74
2023/02/20 04:48:38;;;;;;;17.73;11.05;;;7.90;99.90;;;;;;2042976;28;20451;-74
2023/02/20 04:49:38;;;;;;;17.65;11.10;;;7.90;99.90;;;;;;2044036;28;20046;-74
2023/02/20 04:50:40;;;;;;;17.92;11.65;;;7.90;99.90;;;;;;2043703;28;20031;-74
2023/02/20 04:51:40;;;;;;;17.98;11.75;;;7.90;99.90;;;;;;2042797;29;20502;-74
2023/02/20 04:52:41;;;;;;;19.02;11.65;;;7.90;99.90;;;;;;2043235;28;20044;-74
2023/02/20 04:53:41;;;;;;;17.05;11.27;;;8.00;99.90;;;;;;2043414;28;20015;-74
2023/02/20 04:54:42;;;;;;;15.55;10.82;;;7.90;99.90;;;;;;2043960;28;20027;-74
2023/02/20 04:55:42;;;;;;;17.90;11.40;;;7.90;99.90;;;;;;2042240;28;20059;-74
2023/02/20 04:56:43;;;;;;;15.52;10.27;;;7.90;99.90;;;;;;2043890;28;20046;-74
2023/02/20 04:57:43;;;;;;;16.83;10.48;;;7.90;99.90;;;;;;2044732;28;20055;-74
2023/02/20 04:58:48;;;;;;;17.30;11.25;;;7.90;99.90;;;;;;2043692;28;20500;-74
2023/02/20 04:59:48;;;;;;;15.43;11.50;;;7.90;99.90;;;;;;2042812;28;20027;-74
2023/02/20 05:00:49;;;;;;;22.83;11.73;;;8.00;99.90;;;;;;2043539;29;20029;-74
2023/02/20 05:01:51;;;;;;;18.67;11.48;;;8.00;99.90;;;;;;2044062;28;20032;-73
2023/02/20 05:02:52;;;;;;;17.88;11.13;;;8.00;99.90;;;;;;2044281;28;20402;-74
2023/02/20 05:03:53;;;;;;;16.70;10.85;;;8.00;99.90;;;;;;2042265;28;20058;-74
2023/02/20 05:04:53;;;;;;;18.73;11.65;;;7.90;99.90;;;;;;2042793;28;20032;-74
2023/02/20 05:05:54;;;;;;;14.80;10.23;;;7.90;99.90;;;;;;2042859;28;20027;-74
2023/02/20 05:06:55;;;;;;;16.27;10.80;;;7.90;99.90;;;;;;2043486;28;20044;-74
2023/02/20 05:07:58;;;;;;;16.95;10.40;;;8.00;99.90;;;;;;2044881;28;20027;-74
2023/02/20 05:08:59;;;;;;;19.67;10.88;;;8.00;99.90;;;;;;2043179;28;20023;-74
2023/02/20 05:09:59;;;;;;;16.50;11.05;;;8.00;99.90;;;;;;2044027;28;20070;-74
2023/02/20 05:11:00;;;;;;;16.25;10.32;;;7.90;99.90;;;;;;2036674;29;20035;-74
2023/02/20 05:12:01;;;;;;;18.42;9.85;;;7.90;99.90;;;;;;2036218;29;20048;-74
2023/02/20 05:13:02;;;;;;;17.60;10.82;;;7.90;99.90;;;;;;2043446;29;20032;-74
2023/02/20 05:14:03;;;;;;;16.40;10.65;;;7.90;99.90;;;;;;2044492;28;20031;-74
2023/02/20 05:15:04;;;;;;;19.55;10.35;;;7.90;99.90;;;;;;2043835;28;20444;-74
2023/02/20 05:16:05;;;;;;;17.08;10.27;;;7.90;99.90;;;;;;2044040;28;20027;-74
2023/02/20 05:17:06;;;;;;;19.05;10.27;;;7.90;99.90;;;;;;2043190;28;20390;-74
2023/02/20 05:18:06;;;;;;;16.10;9.45;;;7.90;99.90;;;;;;2043065;28;20096;-73
2023/02/20 05:19:07;;;;;;;16.52;10.18;;;7.90;99.90;;;;;;2044567;29;20099;-74
2023/02/20 05:20:09;;;;;;;21.13;10.82;;;7.90;99.90;;;;;;2042885;28;20028;-74
2023/02/20 05:22:32;;;;;;;16.50;9.70;;;7.90;99.90;;;;;;2040607;28;20027;-74
2023/02/20 05:23:33;;;;;;;18.65;10.57;;;7.90;99.90;;;;;;2042508;28;20047;-74
2023/02/20 05:24:33;;;;;;;16.48;9.82;;;7.90;99.90;;;;;;2044432;28;20499;-74
2023/02/20 05:25:34;;;;;;;15.02;10.10;;;7.90;99.90;;;;;;2035064;29;20098;-74
2023/02/20 05:26:34;;;;;;;17.85;11.02;;;7.80;99.90;;;;;;2033762;29;20452;-74
2023/02/20 05:27:35;;;;;;;16.48;10.38;;;7.90;99.90;;;;;;2043226;28;20054;-74
2023/02/20 05:28:38;;;;;;;15.70;10.20;;;7.80;99.90;;;;;;2044108;28;20032;-74
2023/02/20 05:29:43;;;;;;;18.30;10.52;;;7.90;99.90;;;;;;2043158;29;20031;-74
2023/02/20 05:30:44;;;;;;;14.95;10.10;;;7.90;99.90;;;;;;2043858;28;20023;-74
2023/02/20 05:31:44;;;;;;;14.20;10.13;;;7.80;99.90;;;;;;2042772;28;20058;-74
2023/02/20 05:32:45;;;;;;;21.65;12.07;;;7.90;99.90;;;;;;2042061;29;20035;-74
2023/02/20 05:33:45;;;;;;;18.23;10.27;;;7.80;99.90;;;;;;2042206;28;20094;-74
2023/02/20 05:34:46;;;;;;;15.65;9.93;;;7.80;99.90;;;;;;2043288;28;20087;-74
2023/02/20 05:35:47;;;;;;;16.88;10.10;;;7.80;99.90;;;;;;2043977;28;20159;-74
2023/02/20 05:36:47;;;;;;;16.77;10.48;;;7.80;99.90;;;;;;2042456;28;20031;-74
2023/02/20 05:37:48;;;;;;;15.05;10.48;;;7.80;99.90;;;;;;2043520;29;20031;-74
2023/02/20 05:38:48;;;;;;;16.10;10.40;;;7.80;99.90;;;;;;2036136;29;20016;-74
2023/02/20 05:39:49;;;;;;;15.48;10.43;;;7.80;99.90;;;;;;2035081;29;20036;-74
2023/02/20 05:40:49;;;;;;;15.00;10.38;;;7.80;99.90;;;;;;2042158;28;20032;-74
2023/02/20 05:41:50;;;;;;;14.77;9.90;;;7.80;99.90;;;;;;2043564;28;20031;-74
2023/02/20 05:42:50;;;;;;;18.20;10.13;;;7.80;99.90;;;;;;2042720;28;20035;-74
2023/02/20 05:43:53;;;;;;;17.60;10.30;;;7.80;99.90;;;;;;2043722;28;20057;-74
2023/02/20 05:44:54;;;;;;;20.17;10.80;;;7.80;99.90;;;;;;2042079;28;20389;-74
2023/02/20 05:45:54;;;;;;;19.15;10.45;;;7.80;99.90;;;;;;2034997;29;20046;-74
2023/02/20 05:46:55;;;;;;;22.15;10.57;;;7.80;99.90;;;;;;2034613;29;20027;-74
2023/02/20 05:47:55;;;;;;;16.25;9.80;;;7.80;99.90;;;;;;2043225;28;20114;-74
2023/02/20 05:48:56;;;;;;;18.52;10.43;;;7.80;99.90;;;;;;2043642;28;20034;-74